sensor_id;sensor_type;location;lat;lon;timestamp;P1;durP1;ratioP1;P2;durP2;ratioP2
27145;SDS011;17980;51.744;7.190;2023-10-31T00:02:09;0.50;;;0.50;;
27145;SDS011;17980;51.744;7.190;2023-10-31T00:04:36;0.80;;;0.80;;
27145;SDS011;17980;51.744;7.190;2023-10-31T00:07:03;0.50;;;0.43;;
27145;SDS011;17980;51.744;7.190;2023-10-31T00:09:40;0.83;;;0.73;;
27145;SDS011;17980;51.744;7.190;2023-10-31T00:12:08;0.50;;;0.50;;
27145;SDS011;17980;51.744;7.190;2023-10-31T00:14:35;0.43;;;0.40;;
27145;SDS011;17980;51.744;7.190;2023-10-31T00:17:03;0.50;;;0.50;;
27145;SDS011;17980;51.744;7.190;2023-10-31T00:19:40;0.53;;;0.53;;
27145;SDS011;17980;51.744;7.190;2023-10-31T00:22:07;0.40;;;0.40;;
27145;SDS011;17980;51.744;7.190;2023-10-31T00:24:34;0.40;;;0.40;;
27145;SDS011;17980;51.744;7.190;2023-10-31T00:27:13;0.53;;;0.50;;
27145;SDS011;17980;51.744;7.190;2023-10-31T00:29:41;0.60;;;0.60;;
27145;SDS011;17980;51.744;7.190;2023-10-31T00:32:18;0.60;;;0.60;;
27145;SDS011;17980;51.744;7.190;2023-10-31T00:34:45;0.87;;;0.87;;
27145;SDS011;17980;51.744;7.190;2023-10-31T00:37:13;1.03;;;0.93;;
27145;SDS011;17980;51.744;7.190;2023-10-31T00:39:50;0.87;;;0.80;;
27145;SDS011;17980;51.744;7.190;2023-10-31T00:42:19;2.10;;;1.27;;
27145;SDS011;17980;51.744;7.190;2023-10-31T00:44:46;0.50;;;0.50;;
27145;SDS011;17980;51.744;7.190;2023-10-31T00:47:13;0.70;;;0.70;;
27145;SDS011;17980;51.744;7.190;2023-10-31T00:49:50;0.60;;;0.60;;
27145;SDS011;17980;51.744;7.190;2023-10-31T00:52:19;0.30;;;0.30;;
27145;SDS011;17980;51.744;7.190;2023-10-31T00:54:46;0.50;;;0.50;;
27145;SDS011;17980;51.744;7.190;2023-10-31T00:57:13;0.37;;;0.33;;
27145;SDS011;17980;51.744;7.190;2023-10-31T00:59:50;1.43;;;0.20;;
27145;SDS011;17980;51.744;7.190;2023-10-31T01:02:18;0.40;;;0.40;;
27145;SDS011;17980;51.744;7.190;2023-10-31T01:04:46;0.60;;;0.17;;
27145;SDS011;17980;51.744;7.190;2023-10-31T01:07:13;1.10;;;0.50;;
27145;SDS011;17980;51.744;7.190;2023-10-31T01:09:42;0.97;;;0.40;;
27145;SDS011;17980;51.744;7.190;2023-10-31T01:12:10;1.10;;;0.47;;
27145;SDS011;17980;51.744;7.190;2023-10-31T01:14:37;0.20;;;0.20;;
27145;SDS011;17980;51.744;7.190;2023-10-31T01:17:05;1.90;;;0.30;;
27145;SDS011;17980;51.744;7.190;2023-10-31T01:19:47;0.27;;;0.20;;
27145;SDS011;17980;51.744;7.190;2023-10-31T01:22:15;0.50;;;0.27;;
27145;SDS011;17980;51.744;7.190;2023-10-31T01:24:42;0.10;;;0.10;;
27145;SDS011;17980;51.744;7.190;2023-10-31T01:27:09;0.33;;;0.30;;
27145;SDS011;17980;51.744;7.190;2023-10-31T01:29:52;0.30;;;0.30;;
27145;SDS011;17980;51.744;7.190;2023-10-31T01:32:20;0.30;;;0.20;;
27145;SDS011;17980;51.744;7.190;2023-10-31T01:34:57;0.40;;;0.40;;
27145;SDS011;17980;51.744;7.190;2023-10-31T01:40:00;0.30;;;0.30;;
27145;SDS011;17980;51.744;7.190;2023-10-31T01:42:27;0.20;;;0.20;;
27145;SDS011;17980;51.744;7.190;2023-10-31T01:44:55;0.20;;;0.20;;
27145;SDS011;17980;51.744;7.190;2023-10-31T01:47:22;0.37;;;0.30;;
27145;SDS011;17980;51.744;7.190;2023-10-31T01:49:59;0.30;;;0.30;;
27145;SDS011;17980;51.744;7.190;2023-10-31T01:52:26;0.53;;;0.30;;
27145;SDS011;17980;51.744;7.190;2023-10-31T01:54:56;0.30;;;0.30;;
27145;SDS011;17980;51.744;7.190;2023-10-31T01:57:24;0.40;;;0.30;;
27145;SDS011;17980;51.744;7.190;2023-10-31T02:00:01;0.20;;;0.20;;
27145;SDS011;17980;51.744;7.190;2023-10-31T02:02:28;0.20;;;0.20;;
27145;SDS011;17980;51.744;7.190;2023-10-31T02:05:07;0.20;;;0.20;;
27145;SDS011;17980;51.744;7.190;2023-10-31T02:07:35;0.20;;;0.20;;
27145;SDS011;17980;51.744;7.190;2023-10-31T02:10:12;0.30;;;0.30;;
27145;SDS011;17980;51.744;7.190;2023-10-31T02:12:39;0.10;;;0.10;;
27145;SDS011;17980;51.744;7.190;2023-10-31T02:15:08;0.30;;;0.20;;
27145;SDS011;17980;51.744;7.190;2023-10-31T02:17:37;0.20;;;0.20;;
27145;SDS011;17980;51.744;7.190;2023-10-31T02:20:14;0.17;;;0.17;;
27145;SDS011;17980;51.744;7.190;2023-10-31T02:22:41;0.50;;;0.40;;
27145;SDS011;17980;51.744;7.190;2023-10-31T02:25:16;1.03;;;0.50;;
27145;SDS011;17980;51.744;7.190;2023-10-31T02:27:44;2.70;;;0.20;;
27145;SDS011;17980;51.744;7.190;2023-10-31T02:30:12;0.30;;;0.30;;
27145;SDS011;17980;51.744;7.190;2023-10-31T02:32:40;1.93;;;0.53;;
27145;SDS011;17980;51.744;7.190;2023-10-31T02:35:17;0.50;;;0.30;;
27145;SDS011;17980;51.744;7.190;2023-10-31T02:37:45;0.50;;;0.40;;
27145;SDS011;17980;51.744;7.190;2023-10-31T02:40:12;0.70;;;0.60;;
27145;SDS011;17980;51.744;7.190;2023-10-31T02:42:40;0.30;;;0.30;;
27145;SDS011;17980;51.744;7.190;2023-10-31T02:45:08;0.30;;;0.30;;
27145;SDS011;17980;51.744;7.190;2023-10-31T02:47:45;0.40;;;0.30;;
27145;SDS011;17980;51.744;7.190;2023-10-31T02:50:13;0.63;;;0.60;;
27145;SDS011;17980;51.744;7.190;2023-10-31T02:55:22;0.73;;;0.53;;
27145;SDS011;17980;51.744;7.190;2023-10-31T02:57:50;0.77;;;0.77;;
27145;SDS011;17980;51.744;7.190;2023-10-31T03:00:18;0.50;;;0.50;;
27145;SDS011;17980;51.744;7.190;2023-10-31T03:05:21;0.63;;;0.60;;
27145;SDS011;17980;51.744;7.190;2023-10-31T03:07:49;0.83;;;0.83;;
27145;SDS011;17980;51.744;7.190;2023-10-31T03:10:26;1.20;;;0.73;;
27145;SDS011;17980;51.744;7.190;2023-10-31T03:15:30;1.50;;;1.27;;
27145;SDS011;17980;51.744;7.190;2023-10-31T03:17:57;2.17;;;0.70;;
27145;SDS011;17980;51.744;7.190;2023-10-31T03:20:25;1.83;;;1.20;;
27145;SDS011;17980;51.744;7.190;2023-10-31T03:22:52;1.37;;;1.17;;
27145;SDS011;17980;51.744;7.190;2023-10-31T03:25:29;1.50;;;1.10;;
27145;SDS011;17980;51.744;7.190;2023-10-31T03:27:56;1.87;;;1.17;;
27145;SDS011;17980;51.744;7.190;2023-10-31T03:30:23;1.43;;;1.10;;
27145;SDS011;17980;51.744;7.190;2023-10-31T03:32:51;1.57;;;1.10;;
27145;SDS011;17980;51.744;7.190;2023-10-31T03:35:18;2.23;;;1.70;;
27145;SDS011;17980;51.744;7.190;2023-10-31T03:37:46;1.80;;;1.40;;
27145;SDS011;17980;51.744;7.190;2023-10-31T03:40:26;1.20;;;1.10;;
27145;SDS011;17980;51.744;7.190;2023-10-31T03:42:54;2.27;;;1.80;;
27145;SDS011;17980;51.744;7.190;2023-10-31T03:45:21;2.20;;;1.87;;
27145;SDS011;17980;51.744;7.190;2023-10-31T03:47:49;3.23;;;2.00;;
27145;SDS011;17980;51.744;7.190;2023-10-31T03:50:26;1.67;;;1.23;;
27145;SDS011;17980;51.744;7.190;2023-10-31T03:55:32;2.20;;;1.67;;
27145;SDS011;17980;51.744;7.190;2023-10-31T03:58:00;1.37;;;1.27;;
27145;SDS011;17980;51.744;7.190;2023-10-31T04:00:38;1.60;;;1.50;;
27145;SDS011;17980;51.744;7.190;2023-10-31T04:03:06;3.20;;;2.33;;
27145;SDS011;17980;51.744;7.190;2023-10-31T04:05:33;3.53;;;2.37;;
27145;SDS011;17980;51.744;7.190;2023-10-31T04:08:01;3.03;;;2.00;;
27145;SDS011;17980;51.744;7.190;2023-10-31T04:10:38;3.60;;;1.90;;
27145;SDS011;17980;51.744;7.190;2023-10-31T04:13:05;2.77;;;2.00;;
27145;SDS011;17980;51.744;7.190;2023-10-31T04:15:33;1.93;;;1.57;;
27145;SDS011;17980;51.744;7.190;2023-10-31T04:18:01;3.17;;;2.20;;
27145;SDS011;17980;51.744;7.190;2023-10-31T04:20:44;4.87;;;1.73;;
27145;SDS011;17980;51.744;7.190;2023-10-31T04:23:11;3.43;;;2.10;;
27145;SDS011;17980;51.744;7.190;2023-10-31T04:25:38;3.00;;;1.70;;
27145;SDS011;17980;51.744;7.190;2023-10-31T04:28:06;2.73;;;1.63;;
27145;SDS011;17980;51.744;7.190;2023-10-31T04:30:42;2.80;;;1.47;;
27145;SDS011;17980;51.744;7.190;2023-10-31T04:33:10;3.93;;;2.20;;
27145;SDS011;17980;51.744;7.190;2023-10-31T04:35:37;3.20;;;1.73;;
27145;SDS011;17980;51.744;7.190;2023-10-31T04:38:05;2.63;;;1.87;;
27145;SDS011;17980;51.744;7.190;2023-10-31T04:40:48;1.63;;;1.33;;
27145;SDS011;17980;51.744;7.190;2023-10-31T04:43:16;1.97;;;1.57;;
27145;SDS011;17980;51.744;7.190;2023-10-31T04:45:43;2.43;;;1.83;;
27145;SDS011;17980;51.744;7.190;2023-10-31T04:50:46;2.13;;;1.60;;
27145;SDS011;17980;51.744;7.190;2023-10-31T04:53:13;2.70;;;1.83;;
27145;SDS011;17980;51.744;7.190;2023-10-31T04:55:41;2.10;;;1.43;;
27145;SDS011;17980;51.744;7.190;2023-10-31T04:58:18;2.07;;;1.60;;
27145;SDS011;17980;51.744;7.190;2023-10-31T05:00:46;1.97;;;1.77;;
27145;SDS011;17980;51.744;7.190;2023-10-31T05:03:24;1.67;;;1.57;;
27145;SDS011;17980;51.744;7.190;2023-10-31T05:05:51;5.77;;;1.57;;
27145;SDS011;17980;51.744;7.190;2023-10-31T05:08:19;1.80;;;1.57;;
27145;SDS011;17980;51.744;7.190;2023-10-31T05:10:56;2.80;;;1.73;;
27145;SDS011;17980;51.744;7.190;2023-10-31T05:13:24;1.07;;;0.90;;
27145;SDS011;17980;51.744;7.190;2023-10-31T05:15:52;1.90;;;1.47;;
27145;SDS011;17980;51.744;7.190;2023-10-31T05:18:19;1.63;;;1.50;;
27145;SDS011;17980;51.744;7.190;2023-10-31T05:20:56;2.27;;;1.50;;
27145;SDS011;17980;51.744;7.190;2023-10-31T05:23:23;3.10;;;1.43;;
27145;SDS011;17980;51.744;7.190;2023-10-31T05:25:51;3.23;;;2.53;;
27145;SDS011;17980;51.744;7.190;2023-10-31T05:28:18;1.97;;;1.47;;
27145;SDS011;17980;51.744;7.190;2023-10-31T05:33:40;3.33;;;2.30;;
27145;SDS011;17980;51.744;7.190;2023-10-31T05:36:16;1.20;;;1.10;;
27145;SDS011;17980;51.744;7.190;2023-10-31T05:38:53;1.63;;;1.50;;
27145;SDS011;17980;51.744;7.190;2023-10-31T05:41:21;1.17;;;1.07;;
27145;SDS011;17980;51.744;7.190;2023-10-31T05:43:48;2.70;;;1.47;;
27145;SDS011;17980;51.744;7.190;2023-10-31T05:46:16;2.20;;;1.27;;
27145;SDS011;17980;51.744;7.190;2023-10-31T05:48:52;1.30;;;0.90;;
27145;SDS011;17980;51.744;7.190;2023-10-31T05:51:20;1.07;;;0.97;;
27145;SDS011;17980;51.744;7.190;2023-10-31T05:53:48;2.53;;;1.63;;
27145;SDS011;17980;51.744;7.190;2023-10-31T05:56:15;2.30;;;1.03;;
27145;SDS011;17980;51.744;7.190;2023-10-31T05:58:52;0.93;;;0.90;;
27145;SDS011;17980;51.744;7.190;2023-10-31T06:01:20;1.10;;;0.93;;
27145;SDS011;17980;51.744;7.190;2023-10-31T06:03:47;2.10;;;1.73;;
27145;SDS011;17980;51.744;7.190;2023-10-31T06:06:24;3.37;;;2.47;;
27145;SDS011;17980;51.744;7.190;2023-10-31T06:09:01;2.03;;;1.27;;
27145;SDS011;17980;51.744;7.190;2023-10-31T06:11:31;2.63;;;1.37;;
27145;SDS011;17980;51.744;7.190;2023-10-31T06:13:59;1.20;;;1.00;;
27145;SDS011;17980;51.744;7.190;2023-10-31T06:16:27;15.90;;;1.37;;
27145;SDS011;17980;51.744;7.190;2023-10-31T06:19:04;2.00;;;1.40;;
27145;SDS011;17980;51.744;7.190;2023-10-31T06:21:33;1.10;;;1.00;;
27145;SDS011;17980;51.744;7.190;2023-10-31T06:24:19;1.17;;;1.03;;
27145;SDS011;17980;51.744;7.190;2023-10-31T06:27:08;1.33;;;1.23;;
27145;SDS011;17980;51.744;7.190;2023-10-31T06:33:10;1.63;;;1.33;;
27145;SDS011;17980;51.744;7.190;2023-10-31T06:35:39;2.20;;;1.40;;
27145;SDS011;17980;51.744;7.190;2023-10-31T06:38:07;1.90;;;1.10;;
27145;SDS011;17980;51.744;7.190;2023-10-31T06:40:58;1.43;;;1.33;;
27145;SDS011;17980;51.744;7.190;2023-10-31T06:43:48;2.90;;;1.40;;
27145;SDS011;17980;51.744;7.190;2023-10-31T06:46:17;2.23;;;1.60;;
27145;SDS011;17980;51.744;7.190;2023-10-31T06:49:05;3.83;;;1.87;;
27145;SDS011;17980;51.744;7.190;2023-10-31T06:51:36;3.90;;;1.50;;
27145;SDS011;17980;51.744;7.190;2023-10-31T06:54:15;1.90;;;1.30;;
27145;SDS011;17980;51.744;7.190;2023-10-31T06:56:43;2.70;;;1.33;;
27145;SDS011;17980;51.744;7.190;2023-10-31T06:59:33;2.30;;;1.37;;
27145;SDS011;17980;51.744;7.190;2023-10-31T07:02:20;1.50;;;1.40;;
27145;SDS011;17980;51.744;7.190;2023-10-31T07:04:48;1.70;;;1.47;;
27145;SDS011;17980;51.744;7.190;2023-10-31T07:07:28;2.10;;;1.60;;
27145;SDS011;17980;51.744;7.190;2023-10-31T07:12:51;2.30;;;1.77;;
27145;SDS011;17980;51.744;7.190;2023-10-31T07:15:25;3.60;;;2.40;;
27145;SDS011;17980;51.744;7.190;2023-10-31T07:18:06;2.33;;;1.77;;
27145;SDS011;17980;51.744;7.190;2023-10-31T07:20:36;5.63;;;2.57;;
27145;SDS011;17980;51.744;7.190;2023-10-31T07:23:31;2.83;;;2.03;;
27145;SDS011;17980;51.744;7.190;2023-10-31T07:26:04;1.90;;;1.67;;
27145;SDS011;17980;51.744;7.190;2023-10-31T07:31:14;2.40;;;1.67;;
27145;SDS011;17980;51.744;7.190;2023-10-31T07:33:45;4.40;;;2.73;;
27145;SDS011;17980;51.744;7.190;2023-10-31T07:36:14;3.63;;;2.13;;
27145;SDS011;17980;51.744;7.190;2023-10-31T07:38:54;2.83;;;2.07;;
27145;SDS011;17980;51.744;7.190;2023-10-31T07:41:21;3.03;;;2.13;;
27145;SDS011;17980;51.744;7.190;2023-10-31T07:43:58;3.23;;;2.20;;
27145;SDS011;17980;51.744;7.190;2023-10-31T07:46:28;4.40;;;3.10;;
27145;SDS011;17980;51.744;7.190;2023-10-31T07:49:07;2.87;;;2.13;;
27145;SDS011;17980;51.744;7.190;2023-10-31T07:51:34;3.20;;;2.73;;
27145;SDS011;17980;51.744;7.190;2023-10-31T07:54:22;2.93;;;1.97;;
27145;SDS011;17980;51.744;7.190;2023-10-31T07:59:27;3.30;;;2.40;;
27145;SDS011;17980;51.744;7.190;2023-10-31T08:01:57;2.63;;;1.83;;
27145;SDS011;17980;51.744;7.190;2023-10-31T08:04:34;1.63;;;1.53;;
27145;SDS011;17980;51.744;7.190;2023-10-31T08:07:02;1.50;;;1.30;;
27145;SDS011;17980;51.744;7.190;2023-10-31T08:09:42;3.27;;;1.93;;
27145;SDS011;17980;51.744;7.190;2023-10-31T08:12:13;2.17;;;1.60;;
27145;SDS011;17980;51.744;7.190;2023-10-31T08:14:41;2.33;;;1.40;;
27145;SDS011;17980;51.744;7.190;2023-10-31T08:20:15;2.50;;;1.60;;
27145;SDS011;17980;51.744;7.190;2023-10-31T08:22:43;2.13;;;1.53;;
27145;SDS011;17980;51.744;7.190;2023-10-31T08:25:19;1.83;;;1.43;;
27145;SDS011;17980;51.744;7.190;2023-10-31T08:27:49;4.13;;;2.53;;
27145;SDS011;17980;51.744;7.190;2023-10-31T08:30:34;1.50;;;1.27;;
27145;SDS011;17980;51.744;7.190;2023-10-31T08:33:05;1.57;;;1.27;;
27145;SDS011;17980;51.744;7.190;2023-10-31T08:35:35;1.50;;;1.27;;
27145;SDS011;17980;51.744;7.190;2023-10-31T08:38:03;2.30;;;1.23;;
27145;SDS011;17980;51.744;7.190;2023-10-31T08:40:40;1.40;;;1.03;;
27145;SDS011;17980;51.744;7.190;2023-10-31T08:43:12;1.30;;;1.20;;
27145;SDS011;17980;51.744;7.190;2023-10-31T08:45:39;2.03;;;1.27;;
27145;SDS011;17980;51.744;7.190;2023-10-31T08:48:11;1.37;;;1.27;;
27145;SDS011;17980;51.744;7.190;2023-10-31T08:50:48;2.27;;;1.37;;
27145;SDS011;17980;51.744;7.190;2023-10-31T08:53:17;1.97;;;1.33;;
27145;SDS011;17980;51.744;7.190;2023-10-31T08:55:47;1.73;;;1.40;;
27145;SDS011;17980;51.744;7.190;2023-10-31T08:58:28;1.17;;;0.90;;
27145;SDS011;17980;51.744;7.190;2023-10-31T09:00:57;1.43;;;1.20;;
27145;SDS011;17980;51.744;7.190;2023-10-31T09:03:35;1.57;;;1.03;;
27145;SDS011;17980;51.744;7.190;2023-10-31T09:06:06;0.60;;;0.50;;
27145;SDS011;17980;51.744;7.190;2023-10-31T09:08:48;2.03;;;1.20;;
27145;SDS011;17980;51.744;7.190;2023-10-31T09:11:17;1.73;;;1.07;;
27145;SDS011;17980;51.744;7.190;2023-10-31T09:13:56;1.47;;;1.20;;
27145;SDS011;17980;51.744;7.190;2023-10-31T09:16:27;1.93;;;0.90;;
27145;SDS011;17980;51.744;7.190;2023-10-31T09:19:07;1.07;;;1.00;;
27145;SDS011;17980;51.744;7.190;2023-10-31T09:21:35;1.10;;;0.80;;
27145;SDS011;17980;51.744;7.190;2023-10-31T09:24:06;1.20;;;0.93;;
27145;SDS011;17980;51.744;7.190;2023-10-31T09:26:42;0.60;;;0.60;;
27145;SDS011;17980;51.744;7.190;2023-10-31T09:29:21;1.47;;;0.80;;
27145;SDS011;17980;51.744;7.190;2023-10-31T09:31:48;0.80;;;0.80;;
27145;SDS011;17980;51.744;7.190;2023-10-31T09:34:19;0.83;;;0.80;;
27145;SDS011;17980;51.744;7.190;2023-10-31T09:36:47;1.33;;;1.17;;
27145;SDS011;17980;51.744;7.190;2023-10-31T09:39:30;0.73;;;0.70;;
27145;SDS011;17980;51.744;7.190;2023-10-31T09:41:58;1.70;;;0.70;;
27145;SDS011;17980;51.744;7.190;2023-10-31T09:44:37;0.90;;;0.90;;
27145;SDS011;17980;51.744;7.190;2023-10-31T09:47:23;1.43;;;0.90;;
27145;SDS011;17980;51.744;7.190;2023-10-31T09:50:08;1.27;;;0.90;;
27145;SDS011;17980;51.744;7.190;2023-10-31T09:52:39;0.87;;;0.80;;
27145;SDS011;17980;51.744;7.190;2023-10-31T09:55:10;0.80;;;0.80;;
27145;SDS011;17980;51.744;7.190;2023-10-31T09:57:41;0.93;;;0.83;;
27145;SDS011;17980;51.744;7.190;2023-10-31T10:00:18;1.90;;;1.27;;
27145;SDS011;17980;51.744;7.190;2023-10-31T10:02:48;1.37;;;0.83;;
27145;SDS011;17980;51.744;7.190;2023-10-31T10:05:22;1.23;;;0.90;;
27145;SDS011;17980;51.744;7.190;2023-10-31T10:08:01;1.10;;;1.00;;
27145;SDS011;17980;51.744;7.190;2023-10-31T10:10:36;1.30;;;1.10;;
27145;SDS011;17980;51.744;7.190;2023-10-31T10:13:04;1.23;;;1.07;;
27145;SDS011;17980;51.744;7.190;2023-10-31T10:15:46;0.90;;;0.90;;
27145;SDS011;17980;51.744;7.190;2023-10-31T10:18:28;1.00;;;0.90;;
27145;SDS011;17980;51.744;7.190;2023-10-31T10:24:01;1.40;;;0.90;;
27145;SDS011;17980;51.744;7.190;2023-10-31T10:26:33;2.93;;;1.30;;
27145;SDS011;17980;51.744;7.190;2023-10-31T10:29:01;0.77;;;0.77;;
27145;SDS011;17980;51.744;7.190;2023-10-31T10:31:42;1.30;;;0.93;;
27145;SDS011;17980;51.744;7.190;2023-10-31T10:34:10;1.13;;;0.90;;
27145;SDS011;17980;51.744;7.190;2023-10-31T10:36:41;1.37;;;1.27;;
27145;SDS011;17980;51.744;7.190;2023-10-31T10:39:15;1.13;;;1.03;;
27145;SDS011;17980;51.744;7.190;2023-10-31T10:41:58;5.17;;;1.10;;
27145;SDS011;17980;51.744;7.190;2023-10-31T10:44:31;2.53;;;0.90;;
27145;SDS011;17980;51.744;7.190;2023-10-31T10:47:02;0.83;;;0.80;;
27145;SDS011;17980;51.744;7.190;2023-10-31T10:49:33;1.17;;;1.03;;
27145;SDS011;17980;51.744;7.190;2023-10-31T10:52:16;2.67;;;2.23;;
27145;SDS011;17980;51.744;7.190;2023-10-31T10:54:50;2.10;;;1.23;;
27145;SDS011;17980;51.744;7.190;2023-10-31T10:57:36;1.20;;;0.80;;
27145;SDS011;17980;51.744;7.190;2023-10-31T11:00:11;0.70;;;0.67;;
27145;SDS011;17980;51.744;7.190;2023-10-31T11:02:51;0.87;;;0.80;;
27145;SDS011;17980;51.744;7.190;2023-10-31T11:05:23;1.17;;;1.07;;
27145;SDS011;17980;51.744;7.190;2023-10-31T11:07:54;1.67;;;0.80;;
27145;SDS011;17980;51.744;7.190;2023-10-31T11:10:35;2.67;;;1.50;;
27145;SDS011;17980;51.744;7.190;2023-10-31T11:13:07;2.30;;;0.80;;
27145;SDS011;17980;51.744;7.190;2023-10-31T11:15:38;2.53;;;1.33;;
27145;SDS011;17980;51.744;7.190;2023-10-31T11:18:17;0.93;;;0.80;;
27145;SDS011;17980;51.744;7.190;2023-10-31T11:20:49;4.57;;;1.30;;
27145;SDS011;17980;51.744;7.190;2023-10-31T11:23:28;0.77;;;0.77;;
27145;SDS011;17980;51.744;7.190;2023-10-31T11:28:32;0.67;;;0.67;;
27145;SDS011;17980;51.744;7.190;2023-10-31T11:30:59;1.97;;;1.37;;
27145;SDS011;17980;51.744;7.190;2023-10-31T11:33:38;1.17;;;0.80;;
27145;SDS011;17980;51.744;7.190;2023-10-31T11:36:08;5.13;;;1.13;;
27145;SDS011;17980;51.744;7.190;2023-10-31T11:38:47;0.90;;;0.90;;
27145;SDS011;17980;51.744;7.190;2023-10-31T11:41:14;2.10;;;1.20;;
27145;SDS011;17980;51.744;7.190;2023-10-31T11:43:52;1.90;;;0.90;;
27145;SDS011;17980;51.744;7.190;2023-10-31T11:46:20;0.90;;;0.90;;
27145;SDS011;17980;51.744;7.190;2023-10-31T11:51:26;1.07;;;0.97;;
27145;SDS011;17980;51.744;7.190;2023-10-31T11:53:54;1.53;;;1.13;;
27145;SDS011;17980;51.744;7.190;2023-10-31T11:56:22;1.73;;;1.23;;
27145;SDS011;17980;51.744;7.190;2023-10-31T11:58:56;1.80;;;1.27;;
27145;SDS011;17980;51.744;7.190;2023-10-31T12:01:34;1.37;;;1.17;;
27145;SDS011;17980;51.744;7.190;2023-10-31T12:04:23;3.27;;;1.37;;
27145;SDS011;17980;51.744;7.190;2023-10-31T12:06:59;1.63;;;1.00;;
27145;SDS011;17980;51.744;7.190;2023-10-31T12:09:26;1.30;;;0.90;;
27145;SDS011;17980;51.744;7.190;2023-10-31T12:12:04;1.20;;;0.80;;
27145;SDS011;17980;51.744;7.190;2023-10-31T12:14:32;0.83;;;0.83;;
27145;SDS011;17980;51.744;7.190;2023-10-31T12:17:03;1.27;;;0.80;;
27145;SDS011;17980;51.744;7.190;2023-10-31T12:19:32;1.20;;;1.10;;
27145;SDS011;17980;51.744;7.190;2023-10-31T12:22:12;1.37;;;0.70;;
27145;SDS011;17980;51.744;7.190;2023-10-31T12:24:40;1.07;;;0.87;;
27145;SDS011;17980;51.744;7.190;2023-10-31T12:27:08;0.70;;;0.70;;
27145;SDS011;17980;51.744;7.190;2023-10-31T12:29:45;1.30;;;0.90;;
27145;SDS011;17980;51.744;7.190;2023-10-31T12:32:13;0.97;;;0.97;;
27145;SDS011;17980;51.744;7.190;2023-10-31T12:34:43;0.67;;;0.60;;
27145;SDS011;17980;51.744;7.190;2023-10-31T12:37:10;1.27;;;0.80;;
27145;SDS011;17980;51.744;7.190;2023-10-31T12:39:47;0.80;;;0.60;;
27145;SDS011;17980;51.744;7.190;2023-10-31T12:42:16;0.80;;;0.80;;
27145;SDS011;17980;51.744;7.190;2023-10-31T12:44:44;1.37;;;0.87;;
27145;SDS011;17980;51.744;7.190;2023-10-31T12:47:20;2.67;;;0.93;;
27145;SDS011;17980;51.744;7.190;2023-10-31T12:49:48;1.20;;;0.60;;
27145;SDS011;17980;51.744;7.190;2023-10-31T12:52:45;2.97;;;0.40;;
27145;SDS011;17980;51.744;7.190;2023-10-31T12:55:23;0.60;;;0.53;;
27145;SDS011;17980;51.744;7.190;2023-10-31T12:57:52;0.67;;;0.50;;
27145;SDS011;17980;51.744;7.190;2023-10-31T13:00:35;0.93;;;0.80;;
27145;SDS011;17980;51.744;7.190;2023-10-31T13:03:04;1.53;;;0.60;;
27145;SDS011;17980;51.744;7.190;2023-10-31T13:05:34;0.60;;;0.60;;
27145;SDS011;17980;51.744;7.190;2023-10-31T13:08:02;2.20;;;0.70;;
27145;SDS011;17980;51.744;7.190;2023-10-31T13:10:39;0.97;;;0.67;;
27145;SDS011;17980;51.744;7.190;2023-10-31T13:13:06;1.50;;;1.00;;
27145;SDS011;17980;51.744;7.190;2023-10-31T13:15:34;0.63;;;0.50;;
27145;SDS011;17980;51.744;7.190;2023-10-31T13:18:02;0.40;;;0.40;;
27145;SDS011;17980;51.744;7.190;2023-10-31T13:20:39;0.70;;;0.67;;
27145;SDS011;17980;51.744;7.190;2023-10-31T13:23:06;0.60;;;0.60;;
27145;SDS011;17980;51.744;7.190;2023-10-31T13:25:34;0.70;;;0.50;;
27145;SDS011;17980;51.744;7.190;2023-10-31T13:28:11;0.40;;;0.40;;
27145;SDS011;17980;51.744;7.190;2023-10-31T13:30:39;0.40;;;0.40;;
27145;SDS011;17980;51.744;7.190;2023-10-31T13:33:22;0.90;;;0.73;;
27145;SDS011;17980;51.744;7.190;2023-10-31T13:35:50;0.43;;;0.43;;
27145;SDS011;17980;51.744;7.190;2023-10-31T13:38:18;2.03;;;0.90;;
27145;SDS011;17980;51.744;7.190;2023-10-31T13:40:55;1.10;;;0.77;;
27145;SDS011;17980;51.744;7.190;2023-10-31T13:43:24;0.40;;;0.40;;
27145;SDS011;17980;51.744;7.190;2023-10-31T13:48:27;0.47;;;0.47;;
27145;SDS011;17980;51.744;7.190;2023-10-31T13:50:55;1.60;;;0.60;;
27145;SDS011;17980;51.744;7.190;2023-10-31T13:53:32;0.63;;;0.60;;
27145;SDS011;17980;51.744;7.190;2023-10-31T13:55:59;1.53;;;0.40;;
27145;SDS011;17980;51.744;7.190;2023-10-31T13:58:27;0.30;;;0.30;;
27145;SDS011;17980;51.744;7.190;2023-10-31T14:01:05;0.80;;;0.60;;
27145;SDS011;17980;51.744;7.190;2023-10-31T14:03:33;2.73;;;0.63;;
27145;SDS011;17980;51.744;7.190;2023-10-31T14:06:00;0.60;;;0.60;;
27145;SDS011;17980;51.744;7.190;2023-10-31T14:08:28;0.93;;;0.60;;
27145;SDS011;17980;51.744;7.190;2023-10-31T14:11:07;0.60;;;0.60;;
27145;SDS011;17980;51.744;7.190;2023-10-31T14:13:36;0.40;;;0.40;;
27145;SDS011;17980;51.744;7.190;2023-10-31T14:16:05;0.77;;;0.50;;
27145;SDS011;17980;51.744;7.190;2023-10-31T14:18:33;0.33;;;0.33;;
27145;SDS011;17980;51.744;7.190;2023-10-31T14:21:10;1.17;;;0.70;;
27145;SDS011;17980;51.744;7.190;2023-10-31T14:23:38;0.50;;;0.43;;
27145;SDS011;17980;51.744;7.190;2023-10-31T14:26:05;0.40;;;0.40;;
27145;SDS011;17980;51.744;7.190;2023-10-31T14:28:33;0.30;;;0.30;;
27145;SDS011;17980;51.744;7.190;2023-10-31T14:31:16;0.57;;;0.47;;
27145;SDS011;17980;51.744;7.190;2023-10-31T14:33:44;1.70;;;0.67;;
27145;SDS011;17980;51.744;7.190;2023-10-31T14:36:12;0.20;;;0.20;;
27145;SDS011;17980;51.744;7.190;2023-10-31T14:38:39;0.70;;;0.40;;
27145;SDS011;17980;51.744;7.190;2023-10-31T14:41:16;0.40;;;0.30;;
27145;SDS011;17980;51.744;7.190;2023-10-31T14:43:44;0.30;;;0.30;;
27145;SDS011;17980;51.744;7.190;2023-10-31T14:46:11;0.23;;;0.23;;
27145;SDS011;17980;51.744;7.190;2023-10-31T14:48:39;0.70;;;0.30;;
27145;SDS011;17980;51.744;7.190;2023-10-31T14:51:16;0.20;;;0.20;;
27145;SDS011;17980;51.744;7.190;2023-10-31T14:53:43;0.20;;;0.20;;
27145;SDS011;17980;51.744;7.190;2023-10-31T14:56:11;0.10;;;0.10;;
27145;SDS011;17980;51.744;7.190;2023-10-31T14:58:39;0.40;;;0.20;;
27145;SDS011;17980;51.744;7.190;2023-10-31T15:01:16;0.57;;;0.30;;
27145;SDS011;17980;51.744;7.190;2023-10-31T15:03:43;0.37;;;0.30;;
27145;SDS011;17980;51.744;7.190;2023-10-31T15:06:21;0.20;;;0.20;;
27145;SDS011;17980;51.744;7.190;2023-10-31T15:08:48;0.27;;;0.27;;
27145;SDS011;17980;51.744;7.190;2023-10-31T15:11:26;0.50;;;0.40;;
27145;SDS011;17980;51.744;7.190;2023-10-31T15:13:54;0.20;;;0.20;;
27145;SDS011;17980;51.744;7.190;2023-10-31T15:16:21;0.50;;;0.43;;
27145;SDS011;17980;51.744;7.190;2023-10-31T15:18:49;1.13;;;0.30;;
27145;SDS011;17980;51.744;7.190;2023-10-31T15:21:26;0.20;;;0.20;;
27145;SDS011;17980;51.744;7.190;2023-10-31T15:23:53;0.40;;;0.20;;
27145;SDS011;17980;51.744;7.190;2023-10-31T15:26:24;0.10;;;0.10;;
27145;SDS011;17980;51.744;7.190;2023-10-31T15:28:52;0.20;;;0.20;;
27145;SDS011;17980;51.744;7.190;2023-10-31T15:31:29;1.03;;;0.40;;
27145;SDS011;17980;51.744;7.190;2023-10-31T15:33:56;0.10;;;0.10;;
27145;SDS011;17980;51.744;7.190;2023-10-31T15:36:24;0.17;;;0.17;;
27145;SDS011;17980;51.744;7.190;2023-10-31T15:38:51;0.20;;;0.20;;
27145;SDS011;17980;51.744;7.190;2023-10-31T15:41:28;0.30;;;0.30;;
27145;SDS011;17980;51.744;7.190;2023-10-31T15:43:55;0.33;;;0.33;;
27145;SDS011;17980;51.744;7.190;2023-10-31T15:46:23;0.27;;;0.27;;
27145;SDS011;17980;51.744;7.190;2023-10-31T15:48:50;0.30;;;0.27;;
27145;SDS011;17980;51.744;7.190;2023-10-31T15:51:27;0.20;;;0.20;;
27145;SDS011;17980;51.744;7.190;2023-10-31T15:53:55;0.20;;;0.20;;
27145;SDS011;17980;51.744;7.190;2023-10-31T15:56:23;1.77;;;0.30;;
27145;SDS011;17980;51.744;7.190;2023-10-31T15:59:00;1.77;;;0.60;;
27145;SDS011;17980;51.744;7.190;2023-10-31T16:01:28;0.20;;;0.20;;